createdAt,value
2022-09-13T00:02:29.862Z,84.31954
2022-09-13T00:07:31.717Z,87.67076
2022-09-13T00:12:33.753Z,87.91347
2022-09-13T00:17:35.706Z,86.62041
2022-09-13T00:22:37.599Z,87.50949
2022-09-13T00:27:39.508Z,85.70919
2022-09-13T00:32:41.138Z,87.32973
2022-09-13T00:37:43.050Z,90.07998
2022-09-13T00:42:45.179Z,87.18398
2022-09-13T00:47:47.343Z,87.91002
2022-09-13T00:52:49.307Z,87.31713
2022-09-13T00:57:50.889Z,89.46248
2022-09-13T01:02:52.338Z,88.89696
2022-09-13T01:07:53.785Z,88.22748
2022-09-13T01:12:55.599Z,84.64364
2022-09-13T01:17:57.278Z,85.96215
2022-09-13T01:22:58.860Z,87.00204
2022-09-13T01:28:00.756Z,83.79145
2022-09-13T01:33:02.347Z,86.08933
2022-09-13T01:38:04.154Z,86.75296
2022-09-13T01:43:06.066Z,84.69162
2022-09-13T01:48:08.032Z,84.23858
2022-09-13T01:53:09.820Z,84.12649
2022-09-13T01:58:11.768Z,84.29884
2022-09-13T02:03:13.600Z,85.1883
2022-09-13T02:08:15.479Z,86.73749
2022-09-13T02:13:17.429Z,86.82909
2022-09-13T02:18:19.444Z,83.33109
2022-09-13T02:23:21.295Z,84.67829
2022-09-13T02:28:23.111Z,84.78586
2022-09-13T02:33:24.522Z,83.75243
2022-09-13T02:38:25.951Z,82.76968
2022-09-13T02:43:27.429Z,83.24876
2022-09-13T02:48:29.081Z,81.38143
2022-09-13T02:53:30.777Z,79.52882
2022-09-13T02:58:32.420Z,81.8696
2022-09-13T03:03:33.902Z,82.60176
2022-09-13T03:08:35.461Z,82.15721
2022-09-13T03:13:37.178Z,81.53353
2022-09-13T03:18:38.868Z,83.18109
2022-09-13T03:23:40.381Z,84.56561
2022-09-13T03:28:41.886Z,84.21315
2022-09-13T03:33:43.587Z,84.32078
2022-09-13T03:38:45.022Z,84.57789
2022-09-13T03:43:46.671Z,84.5871
2022-09-13T03:48:48.694Z,82.22445
2022-09-13T03:53:50.268Z,82.1616
2022-09-13T03:58:51.856Z,85.41582
2022-09-13T04:03:56.372Z,83.2402
2022-09-13T04:08:59.077Z,85.38226
2022-09-13T04:14:01.044Z,84.20525
2022-09-13T04:19:03.273Z,85.5409
2022-09-13T04:24:05.200Z,84.4741
2022-09-13T04:29:07.242Z,83.94942
2022-09-13T04:34:09.335Z,84.42518
2022-09-13T04:39:11.350Z,79.35038
2022-09-13T04:44:12.883Z,83.26246
2022-09-13T04:49:15.828Z,82.19106
2022-09-13T04:54:17.319Z,81.65365
2022-09-13T04:59:19.145Z,79.87406
2022-09-13T05:04:20.908Z,83.43305
2022-09-13T05:09:22.656Z,81.80482
2022-09-13T05:14:24.460Z,77.77251
2022-09-13T05:19:26.426Z,77.15441
2022-09-13T05:24:28.232Z,79.76495
2022-09-13T05:29:30.082Z,79.81799
2022-09-13T05:34:31.888Z,78.64821
2022-09-13T05:39:48.397Z,78.17867
2022-09-13T05:45:02.042Z,78.35188
2022-09-13T05:50:15.860Z,78.2933
2022-09-13T05:55:24.648Z,79.22948
2022-09-13T06:00:26.614Z,77.98869
2022-09-13T06:05:31.719Z,76.42307
2022-09-13T06:10:34.178Z,77.10652
2022-09-13T06:15:39.037Z,73.52215
2022-09-13T06:20:44.772Z,74.56342
2022-09-13T06:25:46.544Z,72.67572
2022-09-13T06:30:48.598Z,72.40931
2022-09-13T06:35:50.469Z,70.81721
2022-09-13T06:40:51.880Z,67.84091
2022-09-13T06:45:53.418Z,68.39848
2022-09-13T06:50:55.068Z,68.13564
2022-09-13T06:55:56.727Z,67.32929
2022-09-13T07:00:58.241Z,66.65689
2022-09-13T07:05:59.984Z,64.37387
2022-09-13T07:11:01.997Z,66.27684
2022-09-13T07:16:03.978Z,64.4082
2022-09-13T07:21:05.751Z,63.09818
2022-09-13T07:26:07.734Z,64.50835
2022-09-13T07:31:09.847Z,65.08795
2022-09-13T07:36:11.695Z,62.66459
2022-09-13T07:41:13.554Z,58.95434
2022-09-13T07:46:15.208Z,56.26047
2022-09-13T07:51:17.211Z,57.67891
2022-09-13T07:56:19.093Z,53.43307
2022-09-13T08:01:20.981Z,55.90355
2022-09-13T08:06:22.837Z,55.5163
2022-09-13T08:11:24.576Z,54.74122
2022-09-13T08:16:26.448Z,50.32502
2022-09-13T08:21:28.719Z,49.03518
2022-09-13T08:26:30.479Z,52.4857
2022-09-13T08:31:32.367Z,48.5905
2022-09-13T08:36:34.304Z,48.13475
2022-09-13T08:41:36.086Z,45.37649
2022-09-13T08:46:37.899Z,45.98516
2022-09-13T08:51:40.070Z,44.29393
2022-09-13T08:56:41.823Z,45.09167
2022-09-13T09:01:43.827Z,46.66719
2022-09-13T09:06:45.493Z,43.51574
2022-09-13T09:11:47.258Z,42.10102
2022-09-13T09:16:49.024Z,43.25186
2022-09-13T09:21:51.076Z,40.93856
2022-09-13T09:26:52.576Z,42.11278
2022-09-13T09:31:54.094Z,40.46316
2022-09-13T09:36:55.748Z,38.65502
2022-09-13T09:41:57.177Z,40.27102
2022-09-13T09:46:58.701Z,40.50031
2022-09-13T09:52:00.438Z,40.53043
2022-09-13T09:57:01.997Z,39.66044
2022-09-13T10:02:03.721Z,40.21184
2022-09-13T10:07:05.211Z,39.01755
2022-09-13T10:12:06.724Z,36.8966
2022-09-13T10:17:08.446Z,37.69148
2022-09-13T10:22:10.589Z,36.74303
2022-09-13T10:27:12.385Z,37.14204
2022-09-13T10:32:14.357Z,37.00902
2022-09-13T10:37:16.007Z,36.53968
2022-09-13T10:42:17.716Z,35.81783
2022-09-13T10:47:19.525Z,36.38456
2022-09-13T10:52:21.354Z,37.72349
2022-09-13T10:57:23.035Z,36.97241
2022-09-13T11:02:24.861Z,36.17539
2022-09-13T11:07:26.618Z,36.55649
2022-09-13T11:12:28.386Z,36.14424
2022-09-13T11:17:30.083Z,35.50736
2022-09-13T11:22:31.927Z,34.18414
2022-09-13T11:27:34.087Z,36.26132
2022-09-13T11:32:35.947Z,33.58127
2022-09-13T11:37:37.703Z,35.84055
2022-09-13T11:42:39.550Z,35.08634
2022-09-13T11:47:41.457Z,34.69403
2022-09-13T11:52:43.645Z,34.92975
2022-09-13T11:57:45.510Z,34.99732
2022-09-13T12:02:47.415Z,32.9211
2022-09-13T12:07:49.452Z,33.75354
2022-09-13T12:12:51.108Z,35.25649
2022-09-13T12:17:52.893Z,32.99082
2022-09-13T12:22:54.531Z,34.62687
2022-09-13T12:27:55.967Z,36.47546
2022-09-13T12:32:59.098Z,34.88548
2022-09-13T12:38:00.784Z,34.90469
2022-09-13T12:43:02.243Z,33.89755
2022-09-13T12:48:03.753Z,33.98352
2022-09-13T12:53:05.433Z,33.72101
2022-09-13T12:58:06.899Z,35.17047
2022-09-13T13:03:08.497Z,36.04357
2022-09-13T13:08:11.367Z,33.01582
2022-09-13T13:13:12.892Z,33.38322
2022-09-13T13:18:14.560Z,34.01439
2022-09-13T13:23:16.392Z,34.65727
2022-09-13T13:28:18.070Z,33.58705
2022-09-13T13:33:19.754Z,34.4076
2022-09-13T13:38:21.617Z,35.09693
2022-09-13T13:43:23.325Z,35.48631
2022-09-13T13:48:25.365Z,34.14672
2022-09-13T13:53:27.025Z,34.1433
2022-09-13T13:58:28.467Z,35.08211
2022-09-13T14:03:29.930Z,34.83637
2022-09-13T14:08:31.447Z,37.21196
2022-09-13T14:13:32.935Z,36.83945
2022-09-13T14:18:34.393Z,33.8688
2022-09-13T14:23:36.066Z,36.48213
2022-09-13T14:28:37.490Z,36.1747
2022-09-13T14:33:39.094Z,35.44602
2022-09-13T14:38:40.718Z,36.82917
2022-09-13T14:43:42.407Z,38.57229
2022-09-13T14:48:43.868Z,38.71488
2022-09-13T14:53:45.659Z,37.94509
2022-09-13T14:58:47.268Z,38.37552
2022-09-13T15:03:48.877Z,38.24299
2022-09-13T15:08:50.344Z,38.35975
2022-09-13T15:13:51.898Z,38.84236
2022-09-13T15:18:53.431Z,40.04499
2022-09-13T15:23:55.095Z,40.35127
2022-09-13T15:28:56.614Z,38.3703
2022-09-13T15:33:58.533Z,37.29702
2022-09-13T15:39:00.185Z,39.48122
2022-09-13T15:44:01.833Z,41.78695
2022-09-13T15:49:03.343Z,41.73017
2022-09-13T15:54:05.357Z,42.72706
2022-09-13T15:59:07.077Z,41.25612
2022-09-13T16:04:08.983Z,42.79119
2022-09-13T16:09:10.434Z,43.62765
2022-09-13T16:14:12.256Z,43.32264
2022-09-13T16:19:13.823Z,44.43231
2022-09-13T16:24:15.610Z,45.72491
2022-09-13T16:29:17.061Z,45.09609
2022-09-13T16:34:18.580Z,45.18257
2022-09-13T16:39:20.028Z,45.57188
2022-09-13T16:44:21.490Z,43.69261
2022-09-13T16:49:23.019Z,44.85379
2022-09-13T16:54:24.646Z,45.82927
2022-09-13T16:59:26.085Z,46.82678
2022-09-13T17:04:27.805Z,45.50719
2022-09-13T17:09:29.529Z,45.73826
2022-09-13T17:14:31.176Z,47.03057
2022-09-13T17:19:32.626Z,46.70153
2022-09-13T17:24:34.362Z,48.48622
2022-09-13T17:29:36.518Z,47.72655
2022-09-13T17:34:38.539Z,48.6756
2022-09-13T17:39:40.262Z,48.70533
2022-09-13T17:44:41.867Z,48.93856
2022-09-13T17:49:43.902Z,48.11298
2022-09-13T17:54:45.880Z,48.84285
2022-09-13T17:59:47.644Z,48.44528
2022-09-13T18:04:49.425Z,49.93922
2022-09-13T18:09:51.468Z,49.28622
2022-09-13T18:14:53.235Z,48.89432
2022-09-13T18:19:54.758Z,50.14792
2022-09-13T18:24:56.559Z,49.7973
2022-09-13T18:29:58.057Z,49.095
2022-09-13T18:34:59.825Z,49.10379
2022-09-13T18:40:01.470Z,51.13043
2022-09-13T18:45:03.250Z,52.42906
2022-09-13T18:50:05.110Z,52.67268
2022-09-13T18:55:07.130Z,50.39594
2022-09-13T19:00:08.676Z,51.00446
2022-09-13T19:05:10.291Z,50.0116
2022-09-13T19:10:15.878Z,50.98983
2022-09-13T19:15:17.821Z,50.2907
2022-09-13T19:20:19.377Z,49.98827
2022-09-13T19:25:21.132Z,51.90853
2022-09-13T19:30:22.707Z,52.21051
2022-09-13T19:35:24.554Z,51.0598
2022-09-13T19:40:26.708Z,52.23171
2022-09-13T19:45:28.752Z,52.62597
2022-09-13T19:50:30.719Z,53.91639
2022-09-13T19:55:32.376Z,52.55929
2022-09-13T20:00:33.956Z,53.44913
2022-09-13T20:05:35.529Z,54.31524
2022-09-13T20:10:37.118Z,55.0493
2022-09-13T20:15:38.630Z,54.23004
2022-09-13T20:20:40.389Z,61.81615
2022-09-13T20:25:42.068Z,60.26475
2022-09-13T20:30:43.880Z,59.38716
2022-09-13T20:35:45.663Z,57.86496
2022-09-13T20:40:47.440Z,61.13623
2022-09-13T20:45:49.276Z,60.87341
2022-09-13T20:50:51.176Z,61.92008
2022-09-13T20:55:53.322Z,61.23267
2022-09-13T21:00:54.786Z,60.97686
2022-09-13T21:05:56.453Z,60.85313
2022-09-13T21:10:57.886Z,62.71365
2022-09-13T21:15:59.426Z,63.51617
2022-09-13T21:21:01.014Z,63.53517
2022-09-13T21:26:02.647Z,66.2477
2022-09-13T21:31:04.745Z,65.71076
2022-09-13T21:36:06.432Z,65.90244
2022-09-13T21:41:08.109Z,65.65548
2022-09-13T21:46:09.846Z,66.29879
2022-09-13T21:51:11.599Z,66.51988
2022-09-13T21:56:13.359Z,65.87936
2022-09-13T22:01:14.898Z,66.85736
2022-09-13T22:06:16.705Z,67.11666
2022-09-13T22:11:18.704Z,67.17241
2022-09-13T22:16:20.418Z,66.41004
2022-09-13T22:21:22.138Z,64.57016
2022-09-13T22:26:24.457Z,63.70934
2022-09-13T22:31:26.146Z,63.78425
2022-09-13T22:36:27.855Z,63.32579
2022-09-13T22:41:29.521Z,63.83444
2022-09-13T22:46:30.978Z,63.94442
2022-09-13T22:51:32.675Z,63.71729
2022-09-13T22:56:34.647Z,64.85039
2022-09-13T23:01:36.500Z,65.96651
2022-09-13T23:06:38.449Z,65.78737
2022-09-13T23:11:40.403Z,67.19027
2022-09-13T23:16:42.436Z,65.26045
2022-09-13T23:21:44.407Z,66.11189
2022-09-13T23:31:57.113Z,67.2951
2022-09-13T23:36:59.471Z,67.92524
2022-09-13T23:47:11.594Z,68.98225
2022-09-13T23:52:13.227Z,69.70625
2022-09-13T23:57:14.704Z,68.79839
